VTUU/UBP METAR and TAF weather

Enter ICAO airport designator
Station Type Date Time Source
VTUU METAR 2023/02/06 20:00 UTC NOAA

VTUU 062000Z VRB01KT CAVOK 24/21 Q1009 NOSIG


Station Type Date Time Source
VTUU Decoded METAR 2023/02/06 20:00 UTC NOAA

Ubon Ratchathani, Thailand (VTUU) 15-15N 104-52E 127M
Feb 06, 2023 - 03:00 PM EST / 2023.02.06 2000 UTC
Wind: Variable at 1 MPH (1 KT):0
Visibility: greater than 7 mile(s):0
Temperature: 75 F (24 C)
Dew Point: 69 F (21 C)
Relative Humidity: 83%
Pressure (altimeter): 29.80 in. Hg (1009 hPa)
ob: VTUU 062000Z VRB01KT CAVOK 24/21 Q1009 NOSIG
cycle: 20

Station Type Date Time Source
VTUU TAF 2023/02/06 18:27 UTC NOAA

TAF VTUU 061700Z 0618/0718 25005KT 9000 NSC
BECMG 0623/0702 15005KT
BECMG 0706/0708 25005KT

Example: see airport list